createdAt,value
2024-02-13T00:00:11.828Z,15.75
2024-02-13T00:02:42.715Z,10.57
2024-02-13T00:05:10.930Z,10.73
2024-02-13T00:07:40.283Z,11.00
2024-02-13T00:10:11.922Z,11.88
2024-02-13T00:12:42.417Z,9.07
2024-02-13T00:15:15.972Z,10.57
2024-02-13T00:17:45.920Z,10.85
2024-02-13T00:20:15.490Z,12.23
2024-02-13T00:22:42.764Z,13.10
2024-02-13T00:25:13.565Z,14.55
2024-02-13T00:27:41.038Z,13.73
2024-02-13T00:30:10.430Z,13.90
2024-02-13T00:32:41.404Z,13.00
2024-02-13T00:35:10.056Z,16.70
2024-02-13T00:37:38.252Z,15.82
2024-02-13T00:40:06.698Z,12.80
2024-02-13T00:42:34.298Z,15.25
2024-02-13T00:45:01.949Z,15.70
2024-02-13T00:47:30.409Z,15.13
2024-02-13T00:49:58.365Z,18.92
2024-02-13T00:52:29.398Z,14.57
2024-02-13T00:54:57.302Z,12.45
2024-02-13T00:57:25.649Z,12.43
2024-02-13T00:59:53.442Z,13.35
2024-02-13T01:02:21.204Z,11.02
2024-02-13T01:04:49.661Z,13.00
2024-02-13T01:07:18.638Z,12.25
2024-02-13T01:12:13.331Z,13.68
2024-02-13T01:14:40.648Z,12.05
2024-02-13T01:17:08.091Z,11.68
2024-02-13T01:19:35.342Z,13.88
2024-02-13T01:22:02.777Z,13.77
2024-02-13T01:24:32.842Z,13.80
2024-02-13T01:27:00.302Z,11.50
2024-02-13T01:29:27.542Z,18.35
2024-02-13T01:31:55.063Z,14.55
2024-02-13T01:34:22.873Z,14.93
2024-02-13T01:36:50.235Z,11.18
2024-02-13T01:39:17.465Z,13.10
2024-02-13T01:41:44.693Z,14.65
2024-02-13T01:44:12.014Z,14.40
2024-02-13T01:46:40.860Z,18.05
2024-02-13T01:49:10.284Z,17.83
2024-02-13T01:51:38.889Z,17.45
2024-02-13T01:54:07.454Z,18.02
2024-02-13T01:56:36.042Z,19.83
2024-02-13T01:59:05.098Z,18.85
2024-02-13T02:01:33.608Z,17.92
2024-02-13T02:04:01.438Z,19.05
2024-02-13T02:06:28.793Z,17.95
2024-02-13T02:08:57.935Z,20.85
2024-02-13T02:13:54.121Z,15.90
2024-02-13T02:16:21.480Z,16.27
2024-02-13T02:18:48.928Z,21.35
2024-02-13T02:21:16.238Z,17.48
2024-02-13T02:23:43.561Z,21.77
2024-02-13T02:26:11.933Z,24.42
2024-02-13T02:28:39.276Z,22.42
2024-02-13T02:31:06.561Z,25.30
2024-02-13T02:33:33.976Z,24.92
2024-02-13T02:36:01.412Z,23.02
2024-02-13T02:38:28.894Z,30.80
2024-02-13T02:40:56.179Z,23.40
2024-02-13T02:43:23.471Z,27.55
2024-02-13T02:45:50.712Z,24.75
2024-02-13T02:48:19.656Z,30.05
2024-02-13T02:53:18.302Z,26.60
2024-02-13T02:55:47.257Z,26.35
2024-02-13T02:58:14.902Z,23.52
2024-02-13T03:00:42.925Z,24.63
2024-02-13T03:03:10.188Z,30.52
2024-02-13T03:05:37.605Z,28.52
2024-02-13T03:08:05.920Z,26.33
2024-02-13T03:10:33.146Z,27.05
2024-02-13T03:13:00.321Z,27.88
2024-02-13T03:15:28.411Z,28.13
2024-02-13T03:17:55.798Z,25.35
2024-02-13T03:20:23.094Z,25.95
2024-02-13T03:22:50.404Z,27.10
2024-02-13T03:25:17.728Z,22.95
2024-02-13T03:27:44.974Z,25.08
2024-02-13T03:30:12.565Z,28.95
2024-02-13T03:32:39.951Z,26.02
2024-02-13T03:35:07.683Z,28.40
2024-02-13T03:37:34.884Z,24.15
2024-02-13T03:40:06.933Z,23.02
2024-02-13T03:42:34.913Z,22.77
2024-02-13T03:45:02.096Z,22.48
2024-02-13T03:47:29.429Z,23.00
2024-02-13T03:49:57.500Z,29.35
2024-02-13T03:52:26.278Z,25.45
2024-02-13T03:54:53.539Z,27.35
2024-02-13T03:57:20.772Z,22.85
2024-02-13T03:59:47.976Z,23.52
2024-02-13T04:02:15.782Z,21.67
2024-02-13T04:04:43.100Z,21.77
2024-02-13T04:07:10.325Z,25.40
2024-02-13T04:09:37.783Z,26.67
2024-02-13T04:12:10.486Z,23.30
2024-02-13T04:14:41.155Z,23.42
2024-02-13T04:17:08.392Z,27.48
2024-02-13T04:19:35.744Z,21.85
2024-02-13T04:22:03.056Z,24.48
2024-02-13T04:24:30.524Z,24.40
2024-02-13T04:26:57.826Z,25.27
2024-02-13T04:29:25.163Z,27.25
2024-02-13T04:31:52.773Z,22.23
2024-02-13T04:34:20.122Z,23.30
2024-02-13T04:36:48.469Z,23.33
2024-02-13T04:39:16.582Z,24.38
2024-02-13T04:41:45.919Z,24.75
2024-02-13T04:44:14.020Z,27.17
2024-02-13T04:46:42.523Z,20.92
2024-02-13T04:49:10.843Z,25.00
2024-02-13T04:51:38.966Z,25.42
2024-02-13T04:54:06.395Z,24.92
2024-02-13T04:56:34.824Z,23.70
2024-02-13T04:59:03.751Z,21.92
2024-02-13T05:01:31.408Z,23.40
2024-02-13T05:04:17.418Z,28.52
2024-02-13T05:07:03.722Z,25.23
2024-02-13T05:09:31.031Z,23.92
2024-02-13T05:11:58.372Z,23.83
2024-02-13T05:14:25.769Z,25.58
2024-02-13T05:16:53.064Z,24.90
2024-02-13T05:19:22.437Z,23.77
2024-02-13T05:21:51.985Z,24.17
2024-02-13T05:24:19.584Z,26.77
2024-02-13T05:26:47.141Z,27.20
2024-02-13T05:29:15.098Z,23.55
2024-02-13T05:31:42.516Z,22.45
2024-02-13T05:34:11.408Z,22.00
2024-02-13T05:36:38.727Z,25.42
2024-02-13T05:39:05.967Z,25.42
2024-02-13T05:41:33.222Z,21.83
2024-02-13T05:44:04.107Z,21.25
2024-02-13T05:46:31.817Z,22.95
2024-02-13T05:49:01.485Z,25.15
2024-02-13T05:51:28.985Z,23.88
2024-02-13T05:53:56.556Z,23.63
2024-02-13T05:56:27.942Z,23.73
2024-02-13T05:59:01.834Z,24.60
2024-02-13T06:01:29.386Z,24.58
2024-02-13T06:03:59.410Z,24.70
2024-02-13T06:06:27.086Z,22.52
2024-02-13T06:08:54.726Z,28.00
2024-02-13T06:11:22.505Z,22.58
2024-02-13T06:13:50.803Z,23.10
2024-02-13T06:16:18.954Z,24.10
2024-02-13T06:18:49.490Z,28.45
2024-02-13T06:21:22.537Z,23.70
2024-02-13T06:23:52.437Z,25.80
2024-02-13T06:26:20.172Z,24.58
2024-02-13T06:28:47.522Z,26.20
2024-02-13T06:31:15.416Z,27.08
2024-02-13T06:33:42.858Z,21.80
2024-02-13T06:36:11.407Z,19.73
2024-02-13T06:38:38.734Z,30.73
2024-02-13T06:41:11.626Z,23.63
2024-02-13T06:43:38.975Z,24.00
2024-02-13T06:46:06.187Z,25.50
2024-02-13T06:48:34.030Z,26.67
2024-02-13T06:51:02.070Z,23.63
2024-02-13T06:53:29.389Z,25.50
2024-02-13T06:55:56.743Z,23.05
2024-02-13T06:58:24.053Z,23.92
2024-02-13T07:00:52.685Z,22.67
2024-02-13T07:03:20.979Z,25.33
2024-02-13T07:05:48.399Z,24.13
2024-02-13T07:08:16.284Z,20.58
2024-02-13T07:10:43.703Z,21.70
2024-02-13T07:13:10.922Z,18.48
2024-02-13T07:15:38.964Z,17.15
2024-02-13T07:18:07.892Z,20.85
2024-02-13T07:20:36.096Z,19.10
2024-02-13T07:23:04.131Z,15.25
2024-02-13T07:25:31.549Z,17.40
2024-02-13T07:27:58.964Z,14.98
2024-02-13T07:30:27.360Z,17.85
2024-02-13T07:32:56.010Z,21.35
2024-02-13T07:35:23.924Z,15.75
2024-02-13T07:37:51.328Z,17.00
2024-02-13T07:40:19.242Z,15.88
2024-02-13T07:42:46.971Z,24.52
2024-02-13T07:45:14.300Z,17.58
2024-02-13T07:47:42.778Z,14.13
2024-02-13T07:50:11.278Z,14.00
2024-02-13T07:52:39.000Z,15.32
2024-02-13T07:55:07.431Z,14.88
2024-02-13T07:57:36.257Z,12.27
2024-02-13T08:00:05.439Z,12.48
2024-02-13T08:02:33.205Z,17.30
2024-02-13T08:05:01.051Z,18.38
2024-02-13T08:07:29.572Z,15.80
2024-02-13T08:09:57.061Z,11.10
2024-02-13T08:12:26.002Z,25.45
2024-02-13T08:15:02.149Z,11.70
2024-02-13T08:17:31.058Z,9.90
2024-02-13T08:22:31.109Z,11.00
2024-02-13T09:48:35.445Z,10.25
2024-02-13T09:51:11.054Z,14.23
2024-02-13T09:53:42.213Z,9.60
2024-02-13T09:56:15.151Z,9.25
2024-02-13T09:58:43.854Z,10.40
2024-02-13T10:01:11.092Z,11.73
2024-02-13T10:03:39.803Z,10.00
2024-02-13T10:06:07.812Z,8.48
2024-02-13T10:08:39.106Z,8.75
2024-02-13T10:11:07.369Z,10.35
2024-02-13T10:13:48.429Z,12.02
2024-02-13T11:30:21.285Z,6.32
2024-02-13T11:33:04.179Z,8.13
2024-02-13T11:35:34.479Z,9.30
2024-02-13T11:38:11.147Z,8.07
2024-02-13T12:15:55.830Z,8.70
2024-02-13T12:18:23.576Z,9.00
2024-02-13T12:20:51.781Z,8.75
2024-02-13T12:23:19.475Z,9.25
2024-02-13T12:25:47.838Z,6.25
2024-02-13T12:28:15.469Z,7.03
2024-02-13T12:30:47.593Z,6.35
2024-02-13T12:33:22.432Z,9.25
2024-02-13T12:57:32.547Z,7.30
2024-02-13T13:18:59.263Z,6.38
2024-02-13T13:21:27.561Z,6.40
2024-02-13T13:23:55.765Z,13.85
2024-02-13T13:26:33.735Z,6.07
2024-02-13T13:29:21.799Z,7.10
2024-02-13T13:31:50.473Z,9.93
2024-02-13T13:34:21.867Z,7.00
2024-02-13T13:36:51.097Z,5.25
2024-02-13T13:44:14.940Z,6.53
2024-02-13T13:46:42.756Z,8.23
2024-02-13T13:49:10.961Z,4.10
2024-02-13T13:51:40.787Z,6.32
2024-02-13T13:54:08.251Z,7.53
2024-02-13T15:04:01.730Z,7.28
2024-02-13T15:06:30.927Z,4.25
2024-02-13T15:08:58.354Z,4.28
2024-02-13T15:11:25.671Z,3.80
2024-02-13T15:13:54.685Z,3.83
2024-02-13T15:16:22.525Z,2.80
2024-02-13T15:18:50.729Z,4.93
2024-02-13T15:21:18.090Z,4.63
2024-02-13T15:23:47.200Z,5.70
2024-02-13T15:26:14.477Z,5.95
2024-02-13T15:28:42.392Z,6.32
2024-02-13T15:31:16.960Z,6.07
2024-02-13T17:17:10.336Z,4.07
2024-02-13T17:19:37.653Z,3.35
2024-02-13T17:22:05.006Z,5.75
2024-02-13T17:24:32.286Z,6.25
2024-02-13T17:27:00.087Z,5.40
2024-02-13T17:29:27.495Z,6.47
2024-02-13T17:31:54.806Z,4.45
2024-02-13T17:34:23.286Z,9.07
2024-02-13T17:36:50.810Z,9.95
2024-02-13T17:39:18.302Z,5.72
2024-02-13T17:41:47.231Z,5.13
2024-02-13T17:46:41.965Z,6.30
2024-02-13T17:49:10.349Z,8.05
2024-02-13T17:51:39.046Z,7.68
2024-02-13T17:54:06.666Z,6.53
2024-02-13T17:56:34.061Z,6.28
2024-02-13T17:59:02.348Z,8.88
2024-02-13T18:01:29.906Z,8.30
2024-02-13T18:03:57.758Z,10.50
2024-02-13T19:13:20.956Z,12.15
2024-02-13T19:15:48.222Z,12.02
2024-02-13T19:18:17.521Z,12.13
2024-02-13T19:20:44.931Z,10.05
2024-02-13T19:23:12.365Z,6.88
2024-02-13T19:25:39.625Z,9.30
2024-02-13T19:28:08.474Z,8.85
2024-02-13T19:30:36.512Z,9.05
2024-02-13T19:33:05.370Z,8.30
2024-02-13T19:38:00.807Z,8.55
2024-02-13T19:40:28.003Z,7.30
2024-02-13T19:42:55.338Z,8.35
2024-02-13T19:45:22.584Z,8.07
2024-02-13T19:47:49.918Z,8.93
2024-02-13T19:50:17.546Z,8.70
2024-02-13T19:52:45.296Z,9.25
2024-02-13T19:55:12.649Z,6.90
2024-02-13T19:57:40.320Z,7.63
2024-02-13T20:00:10.607Z,7.10
2024-02-13T20:02:38.103Z,8.63
2024-02-13T20:05:06.606Z,7.50
2024-02-13T20:07:34.624Z,8.23
2024-02-13T20:10:01.833Z,9.75
2024-02-13T20:12:29.050Z,7.00
2024-02-13T20:14:57.246Z,5.85
2024-02-13T20:17:24.480Z,6.90
2024-02-13T20:19:53.182Z,6.78
2024-02-13T20:22:20.658Z,5.22
2024-02-13T20:24:48.619Z,8.13
2024-02-13T20:27:15.830Z,7.15
2024-02-13T20:29:43.856Z,6.70
2024-02-13T20:32:11.279Z,6.35
2024-02-13T20:34:38.723Z,4.57
2024-02-13T20:37:06.063Z,6.78
2024-02-13T20:39:33.955Z,6.35
2024-02-13T20:42:03.516Z,6.28
2024-02-13T20:44:31.324Z,6.35
2024-02-13T20:46:58.538Z,6.00
2024-02-13T20:49:25.965Z,8.95
2024-02-13T20:51:53.392Z,7.93
2024-02-13T20:54:20.634Z,6.28
2024-02-13T20:56:48.491Z,5.75
2024-02-13T20:59:16.082Z,7.43
2024-02-13T21:01:43.588Z,7.28
2024-02-13T21:04:11.187Z,7.03
2024-02-13T21:06:42.325Z,8.20
2024-02-13T21:09:13.008Z,10.27
2024-02-13T21:11:41.655Z,9.68
2024-02-13T21:14:09.019Z,6.97
2024-02-13T21:16:36.456Z,5.80
2024-02-13T21:19:03.823Z,7.25
2024-02-13T21:21:50.136Z,5.93
2024-02-13T21:24:17.355Z,7.82
2024-02-13T21:26:44.585Z,9.18
2024-02-13T21:29:11.862Z,10.13
2024-02-13T21:31:40.559Z,8.13
2024-02-13T21:34:07.930Z,8.90
2024-02-13T21:36:36.273Z,9.60
2024-02-13T21:39:09.079Z,6.90
2024-02-13T21:41:37.193Z,5.43
2024-02-13T21:44:05.009Z,9.32
2024-02-13T21:46:32.726Z,5.90
2024-02-13T21:49:00.434Z,6.93
2024-02-13T21:51:27.908Z,9.18
2024-02-13T21:53:55.475Z,7.63
2024-02-13T21:56:23.783Z,7.15
2024-02-13T21:58:52.430Z,8.15
2024-02-13T22:01:19.720Z,8.05
2024-02-13T22:03:47.055Z,6.50
2024-02-13T22:06:14.869Z,8.07
2024-02-13T22:08:43.611Z,7.70
2024-02-13T22:11:11.001Z,7.78
2024-02-13T22:13:38.201Z,9.88
2024-02-13T22:16:05.643Z,8.05
2024-02-13T22:18:32.984Z,6.80
2024-02-13T22:21:00.321Z,7.55
2024-02-13T22:23:30.516Z,6.93
2024-02-13T22:26:03.731Z,6.38
2024-02-13T22:28:30.936Z,7.88
2024-02-13T22:30:58.423Z,7.72
2024-02-13T22:33:26.962Z,10.70
2024-02-13T22:35:55.413Z,6.43
2024-02-13T22:38:22.777Z,7.22
2024-02-13T22:40:50.032Z,7.75
2024-02-13T22:43:17.311Z,6.25
2024-02-13T22:45:44.498Z,8.27
2024-02-13T22:48:11.773Z,6.15
2024-02-13T22:50:39.071Z,8.07
2024-02-13T22:53:06.315Z,8.50
2024-02-13T22:55:33.527Z,6.90
2024-02-13T22:58:00.802Z,10.23
2024-02-13T23:00:46.835Z,8.07
2024-02-13T23:03:14.588Z,8.25
2024-02-13T23:05:48.018Z,8.18
2024-02-13T23:08:16.449Z,9.63
2024-02-13T23:10:44.065Z,7.32
2024-02-13T23:13:13.739Z,7.15
2024-02-13T23:15:41.380Z,7.57
2024-02-13T23:18:10.092Z,6.28
2024-02-13T23:20:37.616Z,6.68
2024-02-13T23:23:05.125Z,8.23
2024-02-13T23:25:32.418Z,7.35
2024-02-13T23:28:00.850Z,8.00
2024-02-13T23:32:56.142Z,6.75
2024-02-13T23:35:23.542Z,7.45
2024-02-13T23:37:50.791Z,6.22
2024-02-13T23:40:19.469Z,7.07
2024-02-13T23:42:50.904Z,7.65
2024-02-13T23:45:18.247Z,7.95
2024-02-13T23:47:45.598Z,7.75
2024-02-13T23:50:13.733Z,9.52
2024-02-13T23:52:42.295Z,7.68
2024-02-13T23:55:10.605Z,8.80
2024-02-13T23:57:46.012Z,6.40
